Time;durP1;ratioP1;P1;durP2;ratioP2;P2;SDS_P1;SDS_P2;PMS_P1;PMS_P2;Temp;Humidity;BMP_temperature;BMP_pressure;BME280_temperature;BME280_humidity;BME280_pressure;Samples;Min_cycle;Max_cycle;Signal;HPM_P1;HPM_P2
2022/04/27 00:01:36;;;;;;;15.60;11.00;;;6.30;99.90;;;;;;5051935;28;20055;-63
2022/04/27 00:04:03;;;;;;;14.88;10.63;;;6.30;99.90;;;;;;5053662;28;20094;-63
2022/04/27 00:06:30;;;;;;;10.18;8.90;;;6.30;99.90;;;;;;5055595;28;20045;-63
2022/04/27 00:08:57;;;;;;;15.90;9.57;;;6.30;99.90;;;;;;5054970;28;20067;-63
2022/04/27 00:11:24;;;;;;;16.35;10.48;;;6.30;99.90;;;;;;5055099;28;20133;-63
2022/04/27 00:13:50;;;;;;;;;;;6.30;99.90;;;;;;5055725;28;20071;-64
2022/04/27 00:16:18;;;;;;;13.38;9.98;;;6.20;99.90;;;;;;5053601;28;19931;-63
2022/04/27 00:18:46;;;;;;;15.43;11.05;;;6.20;99.90;;;;;;5052651;28;20513;-63
2022/04/27 00:21:13;;;;;;;15.65;10.52;;;6.20;99.90;;;;;;5054754;28;20098;-63
2022/04/27 00:23:40;;;;;;;;;;;6.20;99.90;;;;;;5055952;28;20044;-64
2022/04/27 00:26:06;;;;;;;13.80;10.23;;;6.10;99.90;;;;;;5055834;28;20507;-64
2022/04/27 00:28:33;;;;;;;15.63;10.70;;;6.10;99.90;;;;;;5053582;28;20408;-63
2022/04/27 00:31:00;;;;;;;18.05;12.15;;;6.10;99.90;;;;;;5055556;28;20090;-63
2022/04/27 00:33:27;;;;;;;18.70;11.88;;;6.10;99.90;;;;;;5053350;28;20052;-63
2022/04/27 00:35:54;;;;;;;17.95;11.60;;;6.10;99.90;;;;;;5054842;28;20044;-63
2022/04/27 00:38:20;;;;;;;15.43;10.45;;;6.10;99.90;;;;;;5053023;28;20045;-63
2022/04/27 00:40:47;;;;;;;19.55;13.85;;;6.00;99.90;;;;;;5038825;28;20071;-63
2022/04/27 00:43:14;;;;;;;;;;;6.00;99.90;;;;;;5038152;28;20041;-63
2022/04/27 00:45:41;;;;;;;16.05;12.02;;;6.00;99.90;;;;;;5035379;28;19925;-63
2022/04/27 00:48:09;;;;;;;14.88;11.85;;;6.00;99.90;;;;;;5040421;28;20047;-63
2022/04/27 00:50:36;;;;;;;13.93;11.70;;;6.00;99.90;;;;;;5055453;28;20098;-63
2022/04/27 00:53:03;;;;;;;14.60;10.50;;;5.90;99.90;;;;;;5053416;28;20046;-64
2022/04/27 00:55:30;;;;;;;18.45;12.48;;;6.00;99.90;;;;;;5054554;28;20097;-63
2022/04/27 00:57:59;;;;;;;16.60;10.30;;;6.00;99.90;;;;;;5053781;28;20070;-63
2022/04/27 01:00:26;;;;;;;18.92;11.88;;;6.00;99.90;;;;;;5054175;28;20040;-64
2022/04/27 01:02:53;;;;;;;16.02;10.82;;;5.90;99.90;;;;;;5053707;28;20044;-63
2022/04/27 01:05:21;;;;;;;11.65;9.23;;;6.00;99.90;;;;;;5052805;28;20041;-63
2022/04/27 01:07:48;;;;;;;15.73;10.80;;;6.00;99.90;;;;;;5052966;28;20036;-63
2022/04/27 01:10:16;;;;;;;13.27;9.50;;;6.00;99.90;;;;;;5054315;28;20048;-63
2022/04/27 01:12:44;;;;;;;15.88;9.50;;;6.00;99.90;;;;;;5048243;28;20039;-63
2022/04/27 01:15:32;;;;;;;14.55;10.38;;;6.00;99.90;;;;;;5061048;28;20638;-64
2022/04/27 01:17:59;;;;;;;14.38;9.82;;;6.00;99.90;;;;;;5051453;28;20051;-64
2022/04/27 01:20:35;;;;;;;15.38;11.77;;;6.00;99.90;;;;;;5052649;28;20072;-64
2022/04/27 01:23:03;;;;;;;13.82;10.77;;;6.10;99.90;;;;;;5052104;28;20592;-64
2022/04/27 01:26:06;;;;;;;13.30;9.48;;;6.10;99.90;;;;;;5052677;28;20035;-64
2022/04/27 01:28:35;;;;;;;13.43;10.38;;;6.10;99.90;;;;;;5050952;28;20041;-63
2022/04/27 01:31:10;;;;;;;17.27;11.05;;;6.10;99.90;;;;;;5052370;28;20056;-64
2022/04/27 01:33:38;;;;;;;16.45;10.88;;;6.10;99.90;;;;;;5052421;28;20275;-63
2022/04/27 01:36:07;;;;;;;24.00;13.25;;;6.00;99.90;;;;;;5051805;28;20059;-64
2022/04/27 01:38:35;;;;;;;15.70;12.10;;;6.00;99.90;;;;;;5050864;28;20040;-64
2022/04/27 01:41:05;;;;;;;16.10;11.27;;;6.00;99.90;;;;;;5048605;28;20790;-63
2022/04/27 01:43:34;;;;;;;14.95;11.13;;;5.90;99.90;;;;;;5035151;28;20605;-63
2022/04/27 01:46:01;;;;;;;20.85;12.55;;;5.90;99.90;;;;;;5031456;28;20771;-64
2022/04/27 01:48:28;;;;;;;18.17;13.10;;;5.90;99.90;;;;;;5042132;28;20564;-64
2022/04/27 01:50:55;;;;;;;16.33;11.32;;;5.90;99.90;;;;;;5052879;28;20055;-63
2022/04/27 01:56:10;;;;;;;14.52;11.57;;;5.90;99.90;;;;;;5052054;28;20160;-63
2022/04/27 01:58:42;;;;;;;15.88;12.35;;;5.90;99.90;;;;;;5050725;28;20853;-64
2022/04/27 02:01:11;;;;;;;16.40;11.60;;;5.90;99.90;;;;;;5052014;28;20044;-64
2022/04/27 02:03:40;;;;;;;17.38;12.68;;;5.80;99.90;;;;;;5051194;28;20055;-64
2022/04/27 02:06:14;;;;;;;15.30;12.13;;;5.80;99.90;;;;;;5052085;28;20048;-63
2022/04/27 02:08:41;;;;;;;16.00;12.75;;;5.80;99.90;;;;;;5049967;28;20041;-64
2022/04/27 02:11:08;;;;;;;;;;;5.80;99.90;;;;;;5052390;28;20067;-63
2022/04/27 02:13:39;;;;;;;16.23;11.00;;;5.80;99.90;;;;;;5051801;28;19924;-63
2022/04/27 02:16:07;;;;;;;14.05;10.65;;;5.80;99.90;;;;;;5051177;28;20045;-63
2022/04/27 02:18:38;;;;;;;14.77;10.90;;;5.70;99.90;;;;;;5050877;28;20159;-64
2022/04/27 02:21:06;;;;;;;17.73;11.57;;;5.80;99.90;;;;;;5050941;28;20044;-64
2022/04/27 02:23:32;;;;;;;;;;;5.70;99.90;;;;;;5052241;28;20044;-63
2022/04/27 02:26:01;;;;;;;15.95;10.90;;;5.70;99.90;;;;;;5050846;28;19998;-63
2022/04/27 02:28:27;;;;;;;15.68;11.88;;;5.80;99.90;;;;;;5050618;28;20049;-63
2022/04/27 02:30:54;;;;;;;21.25;12.85;;;5.80;99.90;;;;;;5051232;28;20140;-63
2022/04/27 02:33:21;;;;;;;12.75;10.18;;;5.80;99.90;;;;;;5052462;28;20674;-64
2022/04/27 02:35:49;;;;;;;15.75;11.23;;;5.70;99.90;;;;;;5051502;28;20044;-62
2022/04/27 02:38:18;;;;;;;18.40;13.05;;;5.80;99.90;;;;;;5049824;28;20572;-65
2022/04/27 02:40:47;;;;;;;17.23;12.55;;;5.70;99.90;;;;;;5051131;28;20161;-66
2022/04/27 02:43:14;;;;;;;;;;;5.70;99.90;;;;;;5033681;28;20040;-63
2022/04/27 02:45:42;;;;;;;15.35;12.00;;;5.70;99.90;;;;;;5030973;28;19976;-64
2022/04/27 02:48:10;;;;;;;19.55;13.00;;;5.70;99.90;;;;;;5037202;28;20047;-64
2022/04/27 02:53:25;;;;;;;21.42;12.93;;;5.60;99.90;;;;;;5050365;28;20040;-64
2022/04/27 02:55:53;;;;;;;18.00;12.85;;;5.60;99.90;;;;;;5051139;28;20053;-64
2022/04/27 02:58:20;;;;;;;18.85;12.50;;;5.50;99.90;;;;;;5051901;28;20534;-64
2022/04/27 03:00:47;;;;;;;18.08;12.55;;;5.60;99.90;;;;;;5050808;28;20353;-63
2022/04/27 03:03:16;;;;;;;17.58;11.80;;;5.50;99.90;;;;;;5051142;28;20060;-64
2022/04/27 03:05:44;;;;;;;18.60;13.55;;;5.50;99.90;;;;;;5050281;28;20848;-64
2022/04/27 03:08:11;;;;;;;20.63;13.13;;;5.40;99.90;;;;;;5050583;28;20041;-64
2022/04/27 03:10:47;;;;;;;14.77;11.95;;;5.40;99.90;;;;;;5051322;28;20055;-64
2022/04/27 03:13:15;;;;;;;16.73;12.32;;;5.40;99.90;;;;;;5050964;28;20163;-64
2022/04/27 03:15:42;;;;;;;17.17;13.10;;;5.40;99.90;;;;;;5050591;28;20469;-64
2022/04/27 03:18:19;;;;;;;14.63;11.02;;;5.40;99.90;;;;;;5029548;28;20602;-64
2022/04/27 03:20:48;;;;;;;14.30;10.90;;;5.40;99.90;;;;;;5031576;28;20053;-64
2022/04/27 03:23:16;;;;;;;16.95;12.63;;;5.40;99.90;;;;;;5030892;28;20114;-64
2022/04/27 03:25:48;;;;;;;23.00;13.30;;;5.40;99.90;;;;;;5031173;28;20497;-64
2022/04/27 03:28:15;;;;;;;15.57;11.82;;;5.40;99.90;;;;;;5029941;28;20049;-64
2022/04/27 03:30:43;;;;;;;17.92;13.70;;;5.40;99.90;;;;;;5030577;28;20049;-64
2022/04/27 03:33:31;;;;;;;16.38;11.43;;;5.40;99.90;;;;;;5031310;28;20711;-64
2022/04/27 03:35:58;;;;;;;;;;;5.40;99.90;;;;;;5032590;28;20091;-64
2022/04/27 03:38:26;;;;;;;17.40;13.20;;;5.40;99.90;;;;;;5031865;28;19938;-64
2022/04/27 03:40:53;;;;;;;18.55;12.65;;;5.30;99.90;;;;;;5047474;28;20045;-64
2022/04/27 03:43:20;;;;;;;19.50;13.32;;;5.30;99.90;;;;;;5043547;28;20127;-64
2022/04/27 03:45:48;;;;;;;35.03;19.92;;;5.20;99.90;;;;;;5036655;28;20219;-64
2022/04/27 03:48:15;;;;;;;;;;;5.20;99.90;;;;;;5025640;28;20045;-64
2022/04/27 03:50:41;;;;;;;17.58;13.40;;;5.10;99.90;;;;;;5035808;28;19927;-64
2022/04/27 03:53:09;;;;;;;16.00;11.55;;;5.10;99.90;;;;;;5033699;28;20812;-64
2022/04/27 03:55:36;;;;;;;19.70;12.57;;;5.00;99.90;;;;;;5048816;28;20044;-65
2022/04/27 03:58:04;;;;;;;19.08;13.90;;;5.00;99.90;;;;;;5052736;28;20128;-64
2022/04/27 04:00:33;;;;;;;23.33;13.63;;;4.90;99.90;;;;;;5053757;28;20139;-64
2022/04/27 04:03:07;;;;;;;20.40;14.43;;;4.90;99.90;;;;;;5054489;28;20143;-63
2022/04/27 04:05:41;;;;;;;22.63;14.90;;;4.80;99.90;;;;;;5038687;28;21285;-64
2022/04/27 04:08:08;;;;;;;17.98;12.65;;;4.80;99.90;;;;;;5052818;28;20040;-64
2022/04/27 04:10:35;;;;;;;18.98;13.27;;;4.70;99.90;;;;;;5054114;28;20044;-64
2022/04/27 04:13:02;;;;;;;20.55;13.75;;;4.70;99.90;;;;;;5055454;28;20041;-65
2022/04/27 04:15:49;;;;;;;20.05;14.15;;;4.70;99.90;;;;;;5054972;28;20149;-64
2022/04/27 04:18:25;;;;;;;18.20;13.55;;;4.60;99.90;;;;;;5055123;28;20055;-65
2022/04/27 04:21:02;;;;;;;21.15;12.98;;;4.60;99.90;;;;;;5054042;28;20108;-64
2022/04/27 04:23:42;;;;;;;24.35;13.20;;;4.60;99.90;;;;;;5054470;28;20072;-65
2022/04/27 04:28:58;;;;;;;19.55;12.90;;;4.60;99.90;;;;;;5052322;28;20319;-64
2022/04/27 04:31:25;;;;;;;;;;;4.60;99.90;;;;;;5054630;28;20041;-64
2022/04/27 04:33:58;;;;;;;21.23;15.23;;;4.50;99.90;;;;;;5054553;28;19956;-65
2022/04/27 04:36:25;;;;;;;23.65;14.55;;;4.50;99.90;;;;;;5053623;28;20062;-64
2022/04/27 04:38:53;;;;;;;23.63;14.93;;;4.60;99.90;;;;;;5052800;28;20619;-64
2022/04/27 04:41:24;;;;;;;24.83;14.82;;;4.50;99.90;;;;;;5053807;28;20048;-64
2022/04/27 04:43:54;;;;;;;19.85;12.75;;;4.50;99.90;;;;;;5049056;28;20533;-65
2022/04/27 04:46:23;;;;;;;18.98;12.75;;;4.60;99.90;;;;;;5032294;28;20045;-64
2022/04/27 04:49:08;;;;;;;14.93;11.88;;;4.60;99.90;;;;;;5048180;28;20056;-65
2022/04/27 04:51:38;;;;;;;17.90;12.68;;;4.60;99.90;;;;;;5054364;28;20191;-64
2022/04/27 04:54:23;;;;;;;24.00;14.20;;;4.60;99.90;;;;;;5053979;28;20514;-64
2022/04/27 04:57:15;;;;;;;17.10;12.50;;;4.70;99.90;;;;;;5052034;28;20056;-58
2022/04/27 05:00:17;;;;;;;17.25;11.95;;;4.70;99.90;;;;;;5043950;28;20105;-60
2022/04/27 05:03:05;;;;;;;19.17;13.85;;;4.70;99.90;;;;;;5052592;28;20174;-58
2022/04/27 05:05:51;;;;;;;18.42;13.35;;;4.80;99.90;;;;;;5054310;28;20059;-59
2022/04/27 05:08:38;;;;;;;19.50;14.03;;;4.80;99.90;;;;;;5031065;28;20061;-58
2022/04/27 05:11:23;;;;;;;18.27;11.98;;;4.80;99.90;;;;;;5054601;28;20410;-58
2022/04/27 05:14:16;;;;;;;21.52;14.10;;;4.80;99.90;;;;;;5044917;28;20095;-61
2022/04/27 05:17:02;;;;;;;18.92;12.88;;;4.90;99.90;;;;;;5052534;28;20059;-58
2022/04/27 05:19:45;;;;;;;18.80;13.70;;;4.90;99.90;;;;;;5051717;28;20700;-60
2022/04/27 05:22:15;;;;;;;20.40;14.18;;;4.90;99.90;;;;;;5053615;28;20132;-60
2022/04/27 05:25:03;;;;;;;21.70;14.02;;;5.00;99.90;;;;;;5051993;28;20052;-59
2022/04/27 05:27:53;;;;;;;17.50;12.93;;;5.00;99.90;;;;;;5050153;28;20125;-61
2022/04/27 05:33:37;;;;;;;19.77;14.15;;;5.20;99.90;;;;;;5052131;28;20064;-56
2022/04/27 05:36:13;;;;;;;19.05;13.82;;;5.20;99.90;;;;;;5052357;28;20102;-59
2022/04/27 05:39:02;;;;;;;17.92;14.13;;;5.30;99.90;;;;;;5052672;28;20059;-58
2022/04/27 05:41:51;;;;;;;23.45;16.30;;;5.40;99.90;;;;;;5048817;28;20558;-59
2022/04/27 05:44:42;;;;;;;21.35;14.88;;;5.40;99.90;;;;;;5034889;28;20182;-59
2022/04/27 05:47:20;;;;;;;19.27;13.07;;;5.50;99.90;;;;;;5030242;28;20041;-60
2022/04/27 05:49:52;;;;;;;23.00;16.05;;;5.60;99.90;;;;;;5048972;28;20045;-56
2022/04/27 05:52:30;;;;;;;23.48;15.35;;;5.70;99.90;;;;;;5033895;28;20049;-56
2022/04/27 05:55:14;;;;;;;19.58;14.27;;;5.80;99.90;;;;;;5034551;28;20049;-57
2022/04/27 05:57:52;;;;;;;20.02;14.68;;;5.90;99.90;;;;;;5051812;28;20076;-59
2022/04/27 06:00:38;;;;;;;16.10;12.40;;;5.90;99.90;;;;;;5053211;28;20064;-56
2022/04/27 06:03:25;;;;;;;18.23;12.63;;;6.00;99.90;;;;;;5053071;28;20056;-61
2022/04/27 06:05:56;;;;;;;16.48;11.98;;;6.10;99.90;;;;;;5051122;28;20052;-58
2022/04/27 06:08:23;;;;;;;;;;;6.20;99.90;;;;;;5052125;28;20037;-58
2022/04/27 06:10:58;;;;;;;18.70;14.10;;;6.20;99.90;;;;;;5051347;28;19978;-59
2022/04/27 06:13:27;;;;;;;25.05;15.18;;;6.30;99.90;;;;;;5051371;28;20048;-61
2022/04/27 06:16:11;;;;;;;20.52;14.38;;;6.40;99.90;;;;;;5050071;28;20071;-58
2022/04/27 06:18:53;;;;;;;20.67;14.75;;;6.50;99.90;;;;;;5049402;28;20171;-58
2022/04/27 06:21:22;;;;;;;20.38;14.35;;;6.50;99.90;;;;;;5051201;28;20506;-61
2022/04/27 06:23:48;;;;;;;22.58;16.02;;;6.60;99.90;;;;;;5051236;28;20055;-56
2022/04/27 06:26:18;;;;;;;20.52;14.50;;;6.70;99.90;;;;;;5050791;28;20465;-57
2022/04/27 06:28:45;;;;;;;23.65;15.40;;;6.70;99.90;;;;;;5033340;28;20049;-56
2022/04/27 06:31:12;;;;;;;20.73;15.38;;;6.80;99.90;;;;;;5050610;28;20045;-60
2022/04/27 06:33:39;;;;;;;20.90;14.38;;;6.90;99.90;;;;;;5051045;28;20265;-56
2022/04/27 06:36:05;;;;;;;;;;;7.00;99.90;;;;;;5051163;28;20052;-58
2022/04/27 06:38:32;;;;;;;18.58;13.45;;;7.00;99.90;;;;;;5050753;28;19949;-55
2022/04/27 06:41:10;;;;;;;21.65;15.70;;;7.10;99.90;;;;;;5050218;28;20495;-59
2022/04/27 06:43:57;;;;;;;20.33;15.13;;;7.20;99.90;;;;;;5050715;28;20055;-58
2022/04/27 06:46:43;;;;;;;22.50;16.77;;;7.30;99.90;;;;;;5044317;28;20276;-60
2022/04/27 06:49:28;;;;;;;25.42;15.52;;;7.50;99.90;;;;;;5050385;28;20575;-56
2022/04/27 06:52:14;;;;;;;25.02;16.65;;;7.70;99.90;;;;;;5052373;28;20226;-58
2022/04/27 06:54:59;;;;;;;24.92;17.05;;;7.80;99.90;;;;;;5051020;28;20056;-57
2022/04/27 06:57:58;;;;;;;20.98;15.18;;;8.00;99.90;;;;;;5029864;28;20071;-60
2022/04/27 07:00:25;;;;;;;;;;;8.20;99.90;;;;;;5036351;28;20036;-57
2022/04/27 07:02:53;;;;;;;33.00;20.52;;;8.40;99.90;;;;;;5050379;28;19924;-57
2022/04/27 07:05:23;;;;;;;26.83;17.85;;;8.60;99.90;;;;;;5050054;28;20048;-57
2022/04/27 07:07:53;;;;;;;25.88;17.58;;;8.80;99.90;;;;;;5049628;28;20044;-58
2022/04/27 07:10:20;;;;;;;30.17;19.10;;;9.00;99.90;;;;;;5051453;28;20090;-57
2022/04/27 07:12:47;;;;;;;31.35;19.55;;;9.10;99.90;;;;;;5054095;28;20067;-58
2022/04/27 07:15:14;;;;;;;30.67;21.13;;;9.30;99.90;;;;;;5056602;28;20056;-58
2022/04/27 07:17:42;;;;;;;30.48;19.50;;;9.40;99.90;;;;;;5053113;28;20095;-56
2022/04/27 07:20:10;;;;;;;29.90;20.80;;;9.50;99.90;;;;;;5055135;28;20051;-57
2022/04/27 07:22:37;;;;;;;31.95;20.20;;;9.70;99.90;;;;;;5055227;28;20851;-57
2022/04/27 07:25:04;;;;;;;27.63;19.25;;;9.80;99.90;;;;;;5055338;28;20053;-56
2022/04/27 07:27:32;;;;;;;28.85;20.10;;;9.90;99.90;;;;;;5055029;28;20473;-55
2022/04/27 07:29:59;;;;;;;26.58;18.98;;;10.00;99.90;;;;;;5056613;28;20040;-52
2022/04/27 07:32:25;;;;;;;35.40;19.00;;;10.10;99.90;;;;;;5055934;28;20089;-59
2022/04/27 07:34:52;;;;;;;;;;;10.20;99.90;;;;;;5054660;28;20071;-58
2022/04/27 07:37:19;;;;;;;33.50;21.42;;;10.30;99.90;;;;;;5056111;28;19977;-58
2022/04/27 07:39:46;;;;;;;;;;;10.40;99.90;;;;;;5055084;28;20496;-53
2022/04/27 07:42:12;;;;;;;31.15;20.00;;;10.40;99.90;;;;;;5055114;28;19981;-63
2022/04/27 07:44:39;;;;;;;30.45;21.45;;;10.50;99.90;;;;;;5054496;28;20546;-58
2022/04/27 07:47:07;;;;;;;31.88;21.55;;;10.60;99.90;;;;;;5046142;28;20348;-59
2022/04/27 07:49:34;;;;;;;30.23;20.05;;;10.60;99.90;;;;;;5038553;28;20163;-60
2022/04/27 07:52:02;;;;;;;29.25;20.15;;;10.70;99.90;;;;;;5035880;28;20052;-60
2022/04/27 07:54:29;;;;;;;31.75;20.48;;;11.10;99.90;;;;;;5018357;28;20052;-58
2022/04/27 07:56:55;;;;;;;;;;;11.40;99.90;;;;;;5048585;28;20110;-60
2022/04/27 07:59:22;;;;;;;29.45;20.90;;;11.50;99.90;;;;;;5056121;28;19994;-59
2022/04/27 08:01:49;;;;;;;30.27;20.90;;;11.70;99.90;;;;;;5055732;28;20052;-59
2022/04/27 08:04:16;;;;;;;34.17;23.00;;;11.90;99.90;;;;;;5055468;28;20048;-57
2022/04/27 08:06:43;;;;;;;30.55;20.42;;;12.30;99.90;;;;;;5055452;28;20076;-57
2022/04/27 08:09:10;;;;;;;31.65;21.77;;;12.50;99.90;;;;;;5055002;28;20125;-59
2022/04/27 08:11:40;;;;;;;;;;;12.70;99.90;;;;;;5055924;28;20048;-58
2022/04/27 08:14:07;;;;;;;26.15;19.40;;;12.90;99.90;;;;;;5055580;28;20705;-60
2022/04/27 08:16:34;;;;;;;31.30;21.02;;;13.00;99.90;;;;;;5055012;28;20117;-60
2022/04/27 08:19:01;;;;;;;28.75;19.80;;;13.00;99.90;;;;;;5052914;28;20045;-58
2022/04/27 08:21:27;;;;;;;;;;;12.90;99.90;;;;;;5054256;28;20109;-60
2022/04/27 08:23:54;;;;;;;26.27;19.33;;;12.90;99.90;;;;;;5050839;28;19931;-57
2022/04/27 08:26:22;;;;;;;22.40;17.27;;;12.80;99.90;;;;;;5049777;28;20044;-56
2022/04/27 08:28:49;;;;;;;24.02;18.70;;;12.60;99.90;;;;;;5044378;28;20040;-57
2022/04/27 08:31:18;;;;;;;;;;;12.60;99.90;;;;;;5056295;28;20040;-58
2022/04/27 08:33:45;;;;;;;25.48;17.80;;;12.90;99.90;;;;;;5041427;28;19931;-58
2022/04/27 08:36:12;;;;;;;22.75;17.33;;;13.20;99.90;;;;;;5017931;28;20041;-58
2022/04/27 08:38:57;;;;;;;26.02;18.27;;;13.40;99.90;;;;;;5045487;28;20817;-54
2022/04/27 08:41:24;;;;;;;24.23;17.58;;;13.70;99.90;;;;;;5051717;28;20858;-56
2022/04/27 08:43:51;;;;;;;20.42;15.88;;;13.90;99.90;;;;;;5033315;28;20044;-57
2022/04/27 08:46:18;;;;;;;;;;;14.20;99.90;;;;;;5034660;28;20041;-53
2022/04/27 08:48:48;;;;;;;21.77;16.13;;;14.40;99.90;;;;;;5049739;28;20366;-54
2022/04/27 08:51:16;;;;;;;21.27;16.58;;;14.40;99.90;;;;;;5070139;28;20051;-55
2022/04/27 08:53:43;;;;;;;25.20;17.45;;;14.40;99.90;;;;;;5075545;28;20055;-55
2022/04/27 08:56:13;;;;;;;25.02;17.75;;;14.50;99.90;;;;;;5073633;28;20071;-56
2022/04/27 08:58:40;;;;;;;23.67;16.35;;;14.50;99.90;;;;;;5053906;28;20062;-60
2022/04/27 09:01:09;;;;;;;25.20;16.00;;;14.60;99.90;;;;;;5054323;28;20340;-57
2022/04/27 09:03:38;;;;;;;23.75;15.48;;;14.60;99.90;;;;;;5047633;28;20509;-54
2022/04/27 09:06:11;;;;;;;22.20;16.60;;;14.80;99.90;;;;;;5052725;28;20045;-57
2022/04/27 09:08:49;;;;;;;23.65;15.45;;;14.90;99.90;;;;;;5053788;28;20062;-54
2022/04/27 09:11:19;;;;;;;21.35;15.52;;;15.10;99.90;;;;;;5054680;28;20164;-55
2022/04/27 09:13:55;;;;;;;19.05;15.00;;;15.20;99.90;;;;;;5037634;28;20579;-51
2022/04/27 09:16:24;;;;;;;20.88;14.98;;;15.20;99.90;;;;;;5054591;28;20040;-54
2022/04/27 09:21:55;;;;;;;;;;;15.30;99.90;;;;;;5055657;28;20054;-54
2022/04/27 09:24:22;;;;;;;21.63;14.27;;;15.20;99.90;;;;;;5052854;28;19950;-50
2022/04/27 09:27:02;;;;;;;21.00;14.95;;;15.20;99.90;;;;;;5054159;28;20265;-52
2022/04/27 09:29:29;;;;;;;20.20;14.63;;;15.10;99.90;;;;;;5052715;28;20054;-56
2022/04/27 09:31:57;;;;;;;19.98;14.55;;;15.30;99.90;;;;;;5055132;28;20686;-54
2022/04/27 09:34:28;;;;;;;21.50;14.30;;;15.30;99.90;;;;;;5054743;28;20047;-56
2022/04/27 09:37:04;;;;;;;17.83;13.70;;;15.20;99.90;;;;;;5053766;28;20052;-56
2022/04/27 09:39:31;;;;;;;18.73;13.63;;;15.30;99.90;;;;;;5054511;28;20045;-56
2022/04/27 09:42:04;;;;;;;17.95;13.32;;;15.30;98.30;;;;;;5054440;28;20068;-55
2022/04/27 09:44:36;;;;;;;18.02;13.60;;;15.30;99.90;;;;;;5053211;28;20051;-56
2022/04/27 09:47:04;;;;;;;17.05;13.15;;;15.40;97.00;;;;;;5035003;28;20410;-56
2022/04/27 09:49:34;;;;;;;17.27;13.18;;;15.50;98.00;;;;;;5061788;28;20044;-54
2022/04/27 09:52:02;;;;;;;18.92;12.18;;;15.40;98.40;;;;;;5054883;28;20039;-54
2022/04/27 09:54:31;;;;;;;18.77;13.25;;;15.50;97.60;;;;;;5069459;28;20136;-55
2022/04/27 09:57:00;;;;;;;19.70;13.23;;;15.70;96.90;;;;;;5053087;28;20048;-56
2022/04/27 09:59:31;;;;;;;16.35;12.77;;;15.90;95.60;;;;;;5052881;28;20041;-57
2022/04/27 10:02:05;;;;;;;16.83;13.07;;;15.90;97.50;;;;;;5054318;28;20127;-53
2022/04/27 10:04:32;;;;;;;18.42;12.13;;;16.00;94.00;;;;;;5054170;28;20051;-56
2022/04/27 10:07:02;;;;;;;17.50;13.07;;;16.10;93.60;;;;;;5051694;28;20904;-56
2022/04/27 10:09:30;;;;;;;17.83;12.30;;;16.20;93.70;;;;;;5032481;28;20132;-54
2022/04/27 10:12:13;;;;;;;15.45;11.30;;;16.30;93.80;;;;;;5019061;28;20135;-53
2022/04/27 10:14:41;;;;;;;17.92;12.60;;;16.50;93.40;;;;;;5033702;28;20045;-55
2022/04/27 10:17:09;;;;;;;18.50;11.82;;;16.60;86.20;;;;;;5051428;28;20052;-55
2022/04/27 10:19:35;;;;;;;15.55;11.85;;;16.70;84.70;;;;;;5052033;28;20048;-53
2022/04/27 10:22:05;;;;;;;18.40;12.68;;;16.50;88.10;;;;;;5053030;28;20713;-54
2022/04/27 10:24:40;;;;;;;15.82;11.80;;;16.60;85.50;;;;;;5054410;28;20049;-55
2022/04/27 10:27:14;;;;;;;14.52;11.80;;;16.60;86.60;;;;;;5052922;28;20756;-54
2022/04/27 10:29:51;;;;;;;17.73;12.65;;;16.50;85.40;;;;;;5052717;28;20051;-54
2022/04/27 10:32:34;;;;;;;17.42;13.20;;;16.50;82.80;;;;;;5054345;28;20057;-53
2022/04/27 10:35:21;;;;;;;15.68;11.43;;;16.50;90.00;;;;;;5053181;28;20041;-56
2022/04/27 10:38:00;;;;;;;15.90;11.68;;;16.70;88.20;;;;;;5052413;28;20055;-56
2022/04/27 10:40:30;;;;;;;15.45;11.75;;;16.70;84.50;;;;;;5053858;28;20557;-56
2022/04/27 10:43:06;;;;;;;17.02;12.15;;;16.80;86.60;;;;;;5052706;28;20052;-56
2022/04/27 10:45:41;;;;;;;18.67;12.82;;;16.80;86.50;;;;;;5053608;28;20507;-54
2022/04/27 10:48:21;;;;;;;14.48;12.18;;;17.00;81.50;;;;;;5033870;28;20152;-50
2022/04/27 10:50:55;;;;;;;16.23;12.48;;;17.10;85.10;;;;;;5050890;28;20702;-52
2022/04/27 10:53:24;;;;;;;13.90;11.18;;;17.10;82.70;;;;;;5059702;28;20040;-53
2022/04/27 10:56:00;;;;;;;13.93;11.40;;;17.20;81.70;;;;;;5053793;28;20106;-53
2022/04/27 10:58:33;;;;;;;15.95;11.07;;;17.20;80.90;;;;;;5052779;28;20044;-53
2022/04/27 11:01:05;;;;;;;15.63;12.05;;;17.30;79.00;;;;;;5053608;28;20044;-54
2022/04/27 11:03:38;;;;;;;14.15;11.52;;;17.30;77.80;;;;;;5053776;28;20052;-56
2022/04/27 11:06:08;;;;;;;14.57;10.77;;;17.10;78.70;;;;;;5053013;28;20047;-56
2022/04/27 11:09:20;;;;;;;13.38;10.52;;;17.20;78.80;;;;;;5052790;28;20066;-56
2022/04/27 11:11:55;;;;;;;14.57;11.35;;;17.20;76.70;;;;;;4991121;28;20729;-55
2022/04/27 11:14:34;;;;;;;13.50;10.85;;;17.10;80.10;;;;;;5047185;28;20051;-60
2022/04/27 11:17:01;;;;;;;15.40;11.50;;;17.20;77.20;;;;;;5050751;28;20504;-55
2022/04/27 11:19:39;;;;;;;12.80;10.35;;;17.30;76.70;;;;;;5035528;28;20137;-56
2022/04/27 11:22:14;;;;;;;12.88;9.55;;;17.50;79.90;;;;;;5053201;28;20131;-55
2022/04/27 11:24:45;;;;;;;13.65;10.65;;;17.40;72.60;;;;;;5051976;28;20060;-55
2022/04/27 11:27:12;;;;;;;13.73;10.93;;;17.50;75.40;;;;;;5050921;28;20071;-63
2022/04/27 11:29:39;;;;;;;16.23;11.63;;;17.40;73.70;;;;;;5050702;28;20051;-57
2022/04/27 11:32:07;;;;;;;16.02;10.00;;;17.30;73.10;;;;;;5052846;28;20044;-55
2022/04/27 11:34:33;;;;;;;14.23;10.50;;;17.30;77.10;;;;;;5053032;28;20040;-58
2022/04/27 11:37:16;;;;;;;11.40;9.45;;;17.40;75.60;;;;;;5050914;28;20042;-57
2022/04/27 11:39:45;;;;;;;14.55;9.73;;;17.60;73.10;;;;;;5053039;28;20327;-55
2022/04/27 11:42:13;;;;;;;12.45;10.65;;;17.70;73.30;;;;;;5052959;28;20044;-56
2022/04/27 11:44:40;;;;;;;15.35;11.35;;;17.80;74.80;;;;;;5052912;28;20055;-56
2022/04/27 11:47:30;;;;;;;13.77;10.00;;;17.90;71.10;;;;;;5051421;28;20040;-57
2022/04/27 11:50:02;;;;;;;14.88;11.35;;;17.90;73.10;;;;;;5050951;28;20055;-56
2022/04/27 11:52:36;;;;;;;13.48;10.50;;;17.90;71.80;;;;;;5034752;28;20533;-55
2022/04/27 11:55:21;;;;;;;12.38;10.57;;;17.90;71.60;;;;;;5031073;28;20049;-56
2022/04/27 11:57:49;;;;;;;14.95;10.93;;;17.80;71.30;;;;;;5030609;28;20732;-56
2022/04/27 12:00:26;;;;;;;12.52;9.23;;;17.80;70.30;;;;;;5035705;28;20660;-58
2022/04/27 12:03:03;;;;;;;10.88;9.10;;;17.60;70.20;;;;;;5036705;28;20060;-55
2022/04/27 12:05:35;;;;;;;12.85;9.02;;;17.60;71.90;;;;;;5035401;28;20057;-58
2022/04/27 12:08:07;;;;;;;11.35;9.43;;;17.70;72.10;;;;;;5053828;28;20052;-57
2022/04/27 12:10:42;;;;;;;10.45;9.35;;;17.70;67.80;;;;;;5055792;28;20081;-55
2022/04/27 12:13:10;;;;;;;13.75;8.30;;;17.60;68.80;;;;;;5055895;28;20047;-56
2022/04/27 12:15:43;;;;;;;10.43;7.40;;;17.60;68.00;;;;;;5053763;28;20201;-56
2022/04/27 12:18:19;;;;;;;14.10;9.05;;;17.70;70.60;;;;;;5035898;28;20056;-58
2022/04/27 12:20:48;;;;;;;10.07;8.63;;;17.80;69.60;;;;;;5034290;28;20041;-56
2022/04/27 12:23:25;;;;;;;10.93;8.65;;;18.00;70.80;;;;;;5036286;28;20132;-55
2022/04/27 12:26:01;;;;;;;9.20;7.47;;;18.00;66.80;;;;;;5036024;28;20052;-56
2022/04/27 12:28:29;;;;;;;16.17;8.93;;;18.00;65.20;;;;;;5035158;28;20037;-56
2022/04/27 12:31:03;;;;;;;9.85;7.72;;;18.00;66.60;;;;;;5050456;28;20036;-57
2022/04/27 12:33:35;;;;;;;11.43;8.45;;;18.00;66.00;;;;;;5055889;28;20198;-55
2022/04/27 12:39:23;;;;;;;10.13;8.05;;;17.70;65.00;;;;;;5055070;28;20064;-57
2022/04/27 12:41:52;;;;;;;23.38;8.23;;;17.90;67.60;;;;;;5031157;28;20065;-58
2022/04/27 12:44:35;;;;;;;11.85;8.75;;;18.00;64.80;;;;;;5052924;28;20040;-57
2022/04/27 12:47:12;;;;;;;12.50;8.73;;;17.90;64.80;;;;;;5053312;28;20036;-55
2022/04/27 12:49:45;;;;;;;9.65;8.35;;;18.00;66.20;;;;;;5054281;28;20143;-58
2022/04/27 12:52:23;;;;;;;14.90;10.02;;;17.90;64.50;;;;;;5048996;28;20063;-58
2022/04/27 12:55:00;;;;;;;11.77;8.60;;;17.90;64.50;;;;;;5050648;28;20055;-57
2022/04/27 12:57:48;;;;;;;11.93;8.45;;;17.90;65.60;;;;;;5053821;28;20048;-58
2022/04/27 13:00:17;;;;;;;11.82;8.05;;;18.00;65.10;;;;;;5055145;28;20762;-56
2022/04/27 13:02:44;;;;;;;12.60;8.38;;;18.00;62.70;;;;;;5054704;28;20052;-57
2022/04/27 13:05:12;;;;;;;8.32;7.15;;;18.10;62.00;;;;;;5054593;28;20746;-58
2022/04/27 13:07:40;;;;;;;9.95;8.00;;;18.10;61.90;;;;;;5052459;28;20044;-57
2022/04/27 13:12:54;;;;;;;7.32;5.82;;;18.40;62.10;;;;;;5054253;28;20044;-55
2022/04/27 13:15:21;;;;;;;9.68;7.53;;;18.40;60.70;;;;;;5055798;28;20056;-58
2022/04/27 13:17:48;;;;;;;11.15;7.05;;;18.40;60.50;;;;;;5050921;28;20150;-58
2022/04/27 13:20:15;;;;;;;7.22;5.60;;;18.40;59.40;;;;;;5054919;28;20036;-55
2022/04/27 13:22:42;;;;;;;9.35;7.80;;;18.60;60.80;;;;;;5055117;28;20048;-59
2022/04/27 13:25:09;;;;;;;10.93;7.10;;;18.70;58.90;;;;;;5054147;28;20047;-58